createdAt,value
2019-01-10T00:02:14.847Z,13.88
2019-01-10T00:04:41.545Z,13.84
2019-01-10T00:07:08.182Z,13.88
2019-01-10T00:09:34.822Z,13.87
2019-01-10T00:12:01.474Z,13.85
2019-01-10T00:14:28.116Z,13.81
2019-01-10T00:16:54.768Z,13.84
2019-01-10T00:19:21.425Z,13.80
2019-01-10T00:21:48.074Z,13.81
2019-01-10T00:24:16.097Z,13.83
2019-01-10T00:26:41.407Z,13.85
2019-01-10T00:29:08.042Z,13.93
2019-01-10T00:31:34.748Z,13.95
2019-01-10T00:34:01.398Z,13.91
2019-01-10T00:36:28.141Z,13.91
2019-01-10T00:38:54.782Z,13.93
2019-01-10T00:41:21.422Z,13.85
2019-01-10T00:43:48.122Z,13.83
2019-01-10T00:46:14.765Z,13.81
2019-01-10T00:48:41.415Z,13.82
2019-01-10T00:51:08.114Z,13.83
2019-01-10T00:53:34.771Z,13.81
2019-01-10T00:56:01.423Z,13.85
2019-01-10T00:58:28.103Z,13.84
2019-01-10T01:00:54.758Z,13.85
2019-01-10T01:03:21.457Z,13.81
2019-01-10T01:05:48.152Z,13.85
2019-01-10T01:08:14.803Z,13.87
2019-01-10T01:10:41.712Z,13.87
2019-01-10T01:13:08.355Z,13.81
2019-01-10T01:15:35.054Z,13.60
2019-01-10T01:18:01.699Z,14.08
2019-01-10T01:20:28.351Z,14.22
2019-01-10T01:22:55.006Z,14.18
2019-01-10T01:25:21.649Z,14.05
2019-01-10T01:27:48.350Z,13.98
2019-01-10T01:30:15.044Z,13.94
2019-01-10T01:32:43.735Z,13.94
2019-01-10T01:35:10.385Z,13.93
2019-01-10T01:37:37.024Z,13.90
2019-01-10T01:40:03.679Z,13.90
2019-01-10T01:42:30.333Z,13.91
2019-01-10T01:44:57.035Z,13.92
2019-01-10T01:47:23.681Z,13.89
2019-01-10T01:49:50.341Z,13.91
2019-01-10T01:52:16.986Z,13.87
2019-01-10T01:54:43.625Z,13.89
2019-01-10T01:57:10.285Z,13.86
2019-01-10T01:59:36.931Z,13.95
2019-01-10T02:02:03.604Z,14.01
2019-01-10T02:04:30.247Z,14.06
2019-01-10T02:06:57.009Z,14.00
2019-01-10T02:09:23.651Z,14.00
2019-01-10T02:11:50.357Z,13.96
2019-01-10T02:14:17.002Z,13.95
2019-01-10T02:16:43.820Z,13.92
2019-01-10T02:19:10.434Z,13.91
2019-01-10T02:21:37.078Z,13.94
2019-01-10T02:24:03.807Z,13.92
2019-01-10T02:26:30.445Z,13.90
2019-01-10T02:28:57.089Z,13.89
2019-01-10T02:31:23.795Z,13.89
2019-01-10T02:33:50.441Z,13.91
2019-01-10T02:36:17.141Z,13.88
2019-01-10T02:38:43.830Z,13.88
2019-01-10T02:41:10.501Z,13.89
2019-01-10T02:43:37.156Z,13.93
2019-01-10T02:46:03.798Z,13.98
2019-01-10T02:48:30.598Z,14.03
2019-01-10T02:50:57.240Z,14.01
2019-01-10T02:53:23.873Z,13.98
2019-01-10T02:55:50.534Z,13.96
2019-01-10T02:58:17.180Z,13.91
2019-01-10T03:00:43.918Z,13.91
2019-01-10T03:03:10.477Z,13.95
2019-01-10T03:05:37.141Z,13.91
2019-01-10T03:08:03.794Z,13.94
2019-01-10T03:10:30.456Z,13.95
2019-01-10T03:12:57.155Z,13.94
2019-01-10T03:15:23.794Z,13.95
2019-01-10T03:17:50.428Z,13.94
2019-01-10T03:20:17.087Z,13.97
2019-01-10T03:22:43.734Z,13.96
2019-01-10T03:25:10.376Z,13.96
2019-01-10T03:27:37.079Z,14.00
2019-01-10T03:30:03.732Z,14.05
2019-01-10T03:32:30.426Z,14.13
2019-01-10T03:34:57.081Z,14.15
2019-01-10T03:37:23.777Z,14.02
2019-01-10T03:39:50.469Z,14.06
2019-01-10T03:42:17.058Z,14.00
2019-01-10T03:44:43.754Z,14.02
2019-01-10T03:47:10.449Z,14.01
2019-01-10T03:49:37.097Z,13.98
2019-01-10T03:52:03.880Z,14.01
2019-01-10T03:54:30.512Z,14.03
2019-01-10T03:56:57.223Z,14.03
2019-01-10T03:59:23.844Z,14.00
2019-01-10T04:01:50.532Z,14.03
2019-01-10T04:04:17.177Z,14.03
2019-01-10T04:06:43.878Z,14.06
2019-01-10T04:09:10.525Z,14.02
2019-01-10T04:11:37.219Z,14.06
2019-01-10T04:14:03.861Z,14.47
2019-01-10T04:16:30.515Z,15.55
2019-01-10T04:18:57.148Z,15.61
2019-01-10T04:21:23.839Z,15.75
2019-01-10T04:23:50.488Z,15.59
2019-01-10T04:26:17.122Z,15.68
2019-01-10T04:28:43.773Z,15.68
2019-01-10T04:31:10.415Z,15.91
2019-01-10T04:33:37.109Z,16.09
2019-01-10T04:36:03.762Z,16.27
2019-01-10T04:38:30.420Z,16.01
2019-01-10T04:40:57.060Z,15.37
2019-01-10T04:43:23.765Z,15.13
2019-01-10T04:45:50.404Z,14.97
2019-01-10T04:48:17.080Z,14.85
2019-01-10T04:50:43.697Z,14.76
2019-01-10T04:53:10.344Z,14.74
2019-01-10T04:55:36.990Z,14.70
2019-01-10T04:58:03.692Z,14.71
2019-01-10T05:00:30.435Z,14.73
2019-01-10T05:02:57.075Z,14.73
2019-01-10T05:05:23.729Z,14.62
2019-01-10T05:07:50.443Z,14.77
2019-01-10T05:10:17.081Z,15.04
2019-01-10T05:12:43.785Z,14.98
2019-01-10T05:15:10.411Z,15.01
2019-01-10T05:17:37.110Z,14.96
2019-01-10T05:20:03.749Z,14.99
2019-01-10T05:22:30.401Z,15.44
2019-01-10T05:24:57.041Z,15.61
2019-01-10T05:27:23.687Z,15.67
2019-01-10T05:29:50.390Z,15.82
2019-01-10T05:32:17.039Z,15.63
2019-01-10T05:34:43.677Z,15.63
2019-01-10T05:37:10.328Z,15.60
2019-01-10T05:39:36.973Z,15.48
2019-01-10T05:42:03.679Z,15.74
2019-01-10T05:44:30.318Z,16.02
2019-01-10T05:46:56.967Z,16.00
2019-01-10T05:49:23.610Z,16.01
2019-01-10T05:51:50.298Z,15.90
2019-01-10T05:54:16.938Z,15.87
2019-01-10T05:56:43.608Z,15.93
2019-01-10T05:59:10.251Z,15.87
2019-01-10T06:01:36.946Z,15.92
2019-01-10T06:04:03.588Z,15.87
2019-01-10T06:06:30.240Z,15.82
2019-01-10T06:08:56.899Z,15.99
2019-01-10T06:11:23.548Z,16.00
2019-01-10T06:13:50.339Z,15.98
2019-01-10T06:16:17.016Z,15.85
2019-01-10T06:18:43.667Z,16.08
2019-01-10T06:21:10.320Z,16.07
2019-01-10T06:23:37.036Z,16.10
2019-01-10T06:26:05.225Z,16.14
2019-01-10T06:28:31.869Z,16.24
2019-01-10T06:30:58.520Z,16.15
2019-01-10T06:33:25.195Z,16.04
2019-01-10T06:35:51.886Z,15.91
2019-01-10T06:38:18.537Z,15.94
2019-01-10T06:40:45.248Z,15.87
2019-01-10T06:43:11.891Z,15.86
2019-01-10T06:45:38.541Z,15.73
2019-01-10T06:48:05.245Z,15.95
2019-01-10T06:50:31.888Z,16.17
2019-01-10T06:52:58.547Z,16.12
2019-01-10T06:55:25.197Z,16.25
2019-01-10T06:57:52.042Z,16.26
2019-01-10T07:00:18.847Z,16.21
2019-01-10T07:02:45.498Z,16.35
2019-01-10T07:05:12.169Z,16.18
2019-01-10T07:07:38.803Z,16.19
2019-01-10T07:10:05.448Z,16.31
2019-01-10T07:12:32.107Z,16.45
2019-01-10T07:14:58.783Z,16.78
2019-01-10T07:17:25.439Z,16.64
2019-01-10T07:19:52.100Z,16.97
2019-01-10T07:22:18.759Z,16.69
2019-01-10T07:24:45.425Z,16.89
2019-01-10T07:27:12.062Z,16.90
2019-01-10T07:29:38.707Z,16.79
2019-01-10T07:32:05.358Z,16.87
2019-01-10T07:34:32.027Z,16.70
2019-01-10T07:36:58.665Z,17.10
2019-01-10T07:39:25.308Z,16.70
2019-01-10T07:41:51.963Z,16.79
2019-01-10T07:44:19.103Z,16.74
2019-01-10T07:46:45.809Z,16.75
2019-01-10T07:49:12.467Z,16.65
2019-01-10T07:51:39.118Z,16.77
2019-01-10T07:54:05.783Z,16.72
2019-01-10T07:56:32.443Z,16.91
2019-01-10T07:58:59.115Z,16.86
2019-01-10T08:01:25.784Z,16.71
2019-01-10T08:03:52.549Z,16.79
2019-01-10T08:06:19.263Z,16.75
2019-01-10T08:08:45.923Z,16.62
2019-01-10T08:11:12.592Z,16.65
2019-01-10T08:13:39.252Z,16.57
2019-01-10T08:16:06.970Z,16.59
2019-01-10T08:18:33.968Z,16.60
2019-01-10T08:21:00.719Z,16.56
2019-01-10T08:23:27.366Z,16.50
2019-01-10T08:25:54.030Z,16.41
2019-01-10T08:28:20.696Z,16.43
2019-01-10T08:30:47.353Z,16.39
2019-01-10T08:33:14.516Z,16.35
2019-01-10T08:35:41.318Z,16.42
2019-01-10T08:38:07.983Z,16.47
2019-01-10T08:40:34.645Z,16.43
2019-01-10T08:43:01.418Z,16.50
2019-01-10T08:45:29.181Z,16.31
2019-01-10T08:47:55.926Z,16.45
2019-01-10T08:50:22.617Z,16.46
2019-01-10T08:52:49.299Z,16.48
2019-01-10T08:55:15.970Z,16.43
2019-01-10T08:57:42.690Z,16.51
2019-01-10T09:00:09.744Z,16.51
2019-01-10T09:02:36.156Z,16.55
2019-01-10T09:05:02.707Z,16.53
2019-01-10T09:07:29.363Z,16.64
2019-01-10T09:09:56.409Z,16.46
2019-01-10T09:12:23.080Z,16.41
2019-01-10T09:14:52.136Z,16.30
2019-01-10T09:17:19.902Z,16.38
2019-01-10T09:19:46.619Z,16.72
2019-01-10T09:22:13.313Z,16.69
2019-01-10T09:24:39.959Z,16.45
2019-01-10T09:27:06.623Z,16.48
2019-01-10T09:29:33.277Z,16.32
2019-01-10T09:31:59.998Z,16.43
2019-01-10T09:34:26.657Z,16.42
2019-01-10T09:36:53.299Z,16.24
2019-01-10T09:39:19.967Z,16.54
2019-01-10T09:41:46.627Z,16.49
2019-01-10T09:44:13.560Z,16.51
2019-01-10T09:46:40.207Z,15.89
2019-01-10T09:49:06.975Z,16.63
2019-01-10T09:51:33.632Z,16.70
2019-01-10T09:54:00.304Z,16.62
2019-01-10T09:56:26.945Z,16.65
2019-01-10T09:58:53.598Z,16.54
2019-01-10T10:01:20.233Z,16.50
2019-01-10T10:03:46.960Z,16.36
2019-01-10T10:06:13.607Z,16.41
2019-01-10T10:08:40.266Z,16.32
2019-01-10T10:11:06.917Z,16.34
2019-01-10T10:13:33.568Z,16.16
2019-01-10T10:16:00.207Z,16.36
2019-01-10T10:18:26.905Z,16.38
2019-01-10T10:20:53.540Z,16.13
2019-01-10T10:23:26.798Z,16.08
2019-01-10T10:25:46.943Z,16.18
2019-01-10T10:28:13.586Z,16.49
2019-01-10T10:30:40.244Z,16.77
2019-01-10T10:33:06.883Z,16.80
2019-01-10T10:35:33.538Z,17.13
2019-01-10T10:38:00.181Z,17.13
2019-01-10T10:40:26.966Z,17.55
2019-01-10T10:42:53.606Z,17.05
2019-01-10T10:45:20.318Z,16.95
2019-01-10T10:47:46.973Z,17.03
2019-01-10T10:50:13.628Z,17.00
2019-01-10T10:52:40.313Z,16.94
2019-01-10T10:55:07.005Z,16.85
2019-01-10T10:57:33.645Z,16.62
2019-01-10T11:00:00.357Z,16.75
2019-01-10T11:02:26.974Z,16.74
2019-01-10T11:04:53.669Z,16.67
2019-01-10T11:07:20.317Z,16.73
2019-01-10T11:09:47.050Z,16.85
2019-01-10T11:12:13.705Z,17.52
2019-01-10T11:14:40.380Z,17.66
2019-01-10T11:17:07.156Z,17.42
2019-01-10T11:19:33.914Z,17.40
2019-01-10T11:22:00.586Z,17.17
2019-01-10T11:24:27.244Z,17.16
2019-01-10T11:26:54.027Z,17.04
2019-01-10T11:29:20.697Z,17.13
2019-01-10T11:31:47.383Z,17.13
2019-01-10T11:34:14.035Z,17.26
2019-01-10T11:36:40.710Z,17.25
2019-01-10T11:39:07.745Z,17.43
2019-01-10T11:41:34.461Z,17.49
2019-01-10T11:44:01.095Z,17.56
2019-01-10T11:46:27.946Z,17.57
2019-01-10T11:48:54.612Z,17.57
2019-01-10T11:51:21.329Z,17.71
2019-01-10T11:53:47.990Z,17.50
2019-01-10T11:56:15.164Z,17.99
2019-01-10T11:58:41.826Z,17.57
2019-01-10T12:01:08.576Z,17.68
2019-01-10T12:03:35.235Z,17.77
2019-01-10T12:06:01.880Z,17.61
2019-01-10T12:08:29.581Z,17.72
2019-01-10T12:10:56.204Z,17.58
2019-01-10T12:13:22.889Z,17.62
2019-01-10T12:15:49.689Z,17.72
2019-01-10T12:18:16.263Z,17.63
2019-01-10T12:20:42.984Z,17.76
2019-01-10T12:23:09.643Z,17.65
2019-01-10T12:25:36.308Z,17.82
2019-01-10T12:28:02.955Z,17.88
2019-01-10T12:30:29.637Z,17.92
2019-01-10T12:32:56.300Z,18.04
2019-01-10T12:35:23.053Z,17.79
2019-01-10T12:37:49.795Z,17.92
2019-01-10T12:40:16.361Z,18.14
2019-01-10T12:42:42.998Z,17.83
2019-01-10T12:45:12.486Z,17.85
2019-01-10T12:47:39.149Z,18.36
2019-01-10T12:50:05.785Z,18.21
2019-01-10T12:52:35.243Z,18.11
2019-01-10T12:55:01.875Z,18.14
2019-01-10T12:57:29.456Z,17.94
2019-01-10T12:59:56.106Z,17.86
2019-01-10T13:02:22.790Z,17.88
2019-01-10T13:04:49.551Z,17.90
2019-01-10T13:07:16.494Z,17.92
2019-01-10T13:09:43.186Z,17.96
2019-01-10T13:12:09.830Z,17.84
2019-01-10T13:14:36.671Z,17.82
2019-01-10T13:17:03.292Z,17.74
2019-01-10T13:19:33.228Z,17.78
2019-01-10T13:21:58.897Z,17.68
2019-01-10T13:24:25.651Z,17.63
2019-01-10T13:26:52.324Z,17.50
2019-01-10T13:29:19.137Z,17.59
2019-01-10T13:31:45.783Z,17.63
2019-01-10T13:34:12.455Z,17.67
2019-01-10T13:36:39.167Z,17.65
2019-01-10T13:39:05.811Z,17.56
2019-01-10T13:41:32.466Z,17.44
2019-01-10T13:43:59.184Z,17.55
2019-01-10T13:46:25.991Z,17.47
2019-01-10T13:48:52.642Z,17.37
2019-01-10T13:51:19.287Z,17.35
2019-01-10T13:53:45.971Z,17.28
2019-01-10T13:56:13.102Z,17.19
2019-01-10T13:58:40.454Z,17.14
2019-01-10T14:03:34.317Z,17.11
2019-01-10T14:06:00.995Z,17.14
2019-01-10T14:08:27.763Z,17.41
2019-01-10T14:10:54.732Z,17.27
2019-01-10T14:13:22.404Z,17.30
2019-01-10T14:15:49.217Z,17.14
2019-01-10T14:18:15.924Z,17.24
2019-01-10T14:20:42.581Z,17.25
2019-01-10T14:23:09.274Z,17.21
2019-01-10T14:25:35.939Z,17.10
2019-01-10T14:28:02.584Z,17.05
2019-01-10T14:30:29.303Z,17.02
2019-01-10T14:32:55.962Z,17.00
2019-01-10T14:35:22.612Z,17.02
2019-01-10T14:37:49.299Z,17.02
2019-01-10T14:40:17.022Z,17.05
2019-01-10T14:42:43.755Z,17.00
2019-01-10T14:45:10.423Z,17.10
2019-01-10T14:47:37.086Z,16.84
2019-01-10T14:50:03.743Z,16.98
2019-01-10T14:52:30.390Z,17.01
2019-01-10T14:54:57.053Z,17.13
2019-01-10T14:57:23.736Z,17.08
2019-01-10T14:59:50.425Z,17.03
2019-01-10T15:02:17.065Z,17.07
2019-01-10T15:04:43.730Z,17.03
2019-01-10T15:07:11.574Z,17.03
2019-01-10T15:09:37.019Z,17.02
2019-01-10T15:12:03.665Z,17.02
2019-01-10T15:14:30.303Z,17.01
2019-01-10T15:16:56.967Z,16.99
2019-01-10T15:19:23.607Z,16.87
2019-01-10T15:21:50.263Z,16.84
2019-01-10T15:24:16.928Z,16.90
2019-01-10T15:26:43.591Z,16.90
2019-01-10T15:29:10.380Z,16.90
2019-01-10T15:31:37.030Z,16.81
2019-01-10T15:34:03.727Z,16.78
2019-01-10T15:36:30.503Z,16.84
2019-01-10T15:38:57.154Z,16.82
2019-01-10T15:41:23.827Z,16.82
2019-01-10T15:43:50.497Z,16.76
2019-01-10T15:46:17.273Z,16.72
2019-01-10T15:48:43.930Z,16.62
2019-01-10T15:51:10.627Z,16.65
2019-01-10T15:53:37.309Z,16.69
2019-01-10T15:56:04.010Z,16.67
2019-01-10T15:58:30.674Z,16.53
2019-01-10T16:00:57.318Z,16.51
2019-01-10T16:03:23.956Z,16.63
2019-01-10T16:05:50.613Z,16.56
2019-01-10T16:08:17.277Z,16.62
2019-01-10T16:10:43.934Z,16.63
2019-01-10T16:13:10.589Z,16.61
2019-01-10T16:15:37.234Z,16.64
2019-01-10T16:18:03.874Z,16.65
2019-01-10T16:20:30.568Z,16.65
2019-01-10T16:22:57.211Z,16.64
2019-01-10T16:25:23.860Z,16.67
2019-01-10T16:27:50.552Z,16.65
2019-01-10T16:30:17.239Z,16.62
2019-01-10T16:32:43.891Z,16.61
2019-01-10T16:35:10.587Z,16.56
2019-01-10T16:37:37.238Z,16.56
2019-01-10T16:40:03.896Z,16.57
2019-01-10T16:42:31.667Z,16.57
2019-01-10T16:44:58.382Z,16.49
2019-01-10T16:47:25.031Z,16.51
2019-01-10T16:49:51.682Z,16.52
2019-01-10T16:52:18.350Z,16.56
2019-01-10T16:54:44.990Z,16.56
2019-01-10T16:57:11.645Z,16.54
2019-01-10T16:59:38.298Z,16.52
2019-01-10T17:02:04.933Z,16.49
2019-01-10T17:04:31.588Z,16.49
2019-01-10T17:06:58.232Z,16.46
2019-01-10T17:09:24.914Z,16.48
2019-01-10T17:11:51.578Z,16.44
2019-01-10T17:14:18.288Z,16.48
2019-01-10T17:16:50.165Z,16.44
2019-01-10T17:19:11.586Z,16.45
2019-01-10T17:21:38.236Z,16.56
2019-01-10T17:24:04.927Z,16.59
2019-01-10T17:26:31.572Z,16.59
2019-01-10T17:28:58.325Z,16.56
2019-01-10T17:31:24.968Z,16.57
2019-01-10T17:33:51.661Z,16.58
2019-01-10T17:36:18.629Z,16.57
2019-01-10T17:38:44.957Z,16.46
2019-01-10T17:41:11.614Z,16.48
2019-01-10T17:43:38.304Z,16.51
2019-01-10T17:46:05.025Z,16.55
2019-01-10T17:48:31.724Z,16.42
2019-01-10T17:50:58.371Z,16.45
2019-01-10T17:53:26.131Z,16.51
2019-01-10T17:55:51.812Z,16.45
2019-01-10T17:58:18.450Z,16.30
2019-01-10T18:00:45.140Z,16.45
2019-01-10T18:03:11.797Z,16.75
2019-01-10T18:05:39.889Z,16.83
2019-01-10T18:08:05.143Z,16.78
2019-01-10T18:10:31.813Z,16.66
2019-01-10T18:12:58.464Z,16.55
2019-01-10T18:15:25.173Z,16.41
2019-01-10T18:17:51.830Z,16.42
2019-01-10T18:20:18.493Z,16.38
2019-01-10T18:22:45.138Z,16.34
2019-01-10T18:25:11.787Z,16.35
2019-01-10T18:27:38.427Z,16.33
2019-01-10T18:30:05.118Z,16.32
2019-01-10T18:32:31.766Z,16.30
2019-01-10T18:34:58.458Z,16.27
2019-01-10T18:37:25.159Z,16.22
2019-01-10T18:39:51.933Z,16.24
2019-01-10T18:42:18.577Z,16.26
2019-01-10T18:44:45.230Z,16.26
2019-01-10T18:47:11.878Z,16.24
2019-01-10T18:49:38.542Z,16.22
2019-01-10T18:52:05.201Z,16.21
2019-01-10T18:54:31.852Z,16.19
2019-01-10T18:56:58.494Z,16.22
2019-01-10T18:59:25.146Z,16.19
2019-01-10T19:01:51.785Z,16.16
2019-01-10T19:04:18.435Z,16.16
2019-01-10T19:06:45.083Z,16.19
2019-01-10T19:09:11.730Z,16.22
2019-01-10T19:11:38.386Z,16.18
2019-01-10T19:14:05.069Z,16.17
2019-01-10T19:16:31.723Z,16.17
2019-01-10T19:18:58.421Z,16.14
2019-01-10T19:21:25.059Z,16.13
2019-01-10T19:23:51.723Z,16.13
2019-01-10T19:26:18.366Z,16.13
2019-01-10T19:28:45.081Z,16.15
2019-01-10T19:31:11.868Z,16.03
2019-01-10T19:33:38.537Z,16.07
2019-01-10T19:36:05.184Z,16.08
2019-01-10T19:38:31.889Z,16.08
2019-01-10T19:40:58.530Z,16.14
2019-01-10T19:43:25.451Z,16.16
2019-01-10T19:45:52.071Z,16.11
2019-01-10T19:48:18.712Z,16.15
2019-01-10T19:50:45.418Z,16.25
2019-01-10T19:53:12.068Z,16.28
2019-01-10T19:55:38.717Z,16.33
2019-01-10T19:58:05.380Z,16.22
2019-01-10T20:00:32.044Z,16.15
2019-01-10T20:03:00.718Z,16.20
2019-01-10T20:05:25.378Z,16.19
2019-01-10T20:07:52.034Z,16.17
2019-01-10T20:10:18.681Z,16.21
2019-01-10T20:12:45.331Z,16.14
2019-01-10T20:15:12.027Z,16.14
2019-01-10T20:17:38.669Z,16.09
2019-01-10T20:20:05.323Z,16.12
2019-01-10T20:22:31.959Z,16.10
2019-01-10T20:24:58.700Z,16.14
2019-01-10T20:27:25.385Z,16.14
2019-01-10T20:29:52.025Z,16.12
2019-01-10T20:32:21.628Z,16.12
2019-01-10T20:34:48.280Z,16.10
2019-01-10T20:37:14.973Z,16.10
2019-01-10T20:39:41.666Z,16.10
2019-01-10T20:42:09.379Z,16.09
2019-01-10T20:44:34.957Z,16.09
2019-01-10T20:47:01.614Z,16.08
2019-01-10T20:49:28.270Z,16.09
2019-01-10T20:51:54.983Z,16.09
2019-01-10T20:54:21.676Z,16.10
2019-01-10T20:56:48.337Z,16.04
2019-01-10T20:59:14.980Z,16.06
2019-01-10T21:01:43.756Z,16.08
2019-01-10T21:04:10.405Z,16.12
2019-01-10T21:06:37.058Z,16.18
2019-01-10T21:09:03.687Z,16.12
2019-01-10T21:11:30.446Z,16.08
2019-01-10T21:13:57.099Z,16.09
2019-01-10T21:16:23.742Z,16.09
2019-01-10T21:18:50.406Z,16.06
2019-01-10T21:21:17.043Z,16.00
2019-01-10T21:23:43.692Z,16.00
2019-01-10T21:26:10.340Z,15.99
2019-01-10T21:28:37.041Z,15.99
2019-01-10T21:31:03.764Z,16.00
2019-01-10T21:33:30.461Z,15.97
2019-01-10T21:35:57.102Z,15.94
2019-01-10T21:38:23.739Z,15.92
2019-01-10T21:40:50.391Z,15.94
2019-01-10T21:43:17.040Z,15.89
2019-01-10T21:45:43.736Z,15.90
2019-01-10T21:48:10.387Z,15.87
2019-01-10T21:50:37.038Z,15.87
2019-01-10T21:53:03.706Z,15.83
2019-01-10T21:55:30.346Z,15.86
2019-01-10T21:57:57.032Z,15.86
2019-01-10T22:00:23.876Z,15.93
2019-01-10T22:02:50.519Z,15.91
2019-01-10T22:05:17.176Z,15.98
2019-01-10T22:07:43.826Z,15.90
2019-01-10T22:10:10.462Z,15.88
2019-01-10T22:12:37.150Z,15.85
2019-01-10T22:15:03.753Z,15.83
2019-01-10T22:17:30.407Z,15.82
2019-01-10T22:19:57.100Z,15.80
2019-01-10T22:22:23.797Z,15.79
2019-01-10T22:24:50.436Z,15.80
2019-01-10T22:27:17.074Z,15.78
2019-01-10T22:29:43.787Z,15.79
2019-01-10T22:32:10.428Z,15.79
2019-01-10T22:34:37.137Z,15.76
2019-01-10T22:37:03.800Z,15.76
2019-01-10T22:39:30.469Z,15.73
2019-01-10T22:41:57.167Z,15.73
2019-01-10T22:44:23.902Z,15.69
2019-01-10T22:46:50.541Z,15.77
2019-01-10T22:49:17.192Z,15.76
2019-01-10T22:51:43.886Z,15.79
2019-01-10T22:54:10.586Z,15.72
2019-01-10T22:56:37.273Z,15.66
2019-01-10T22:59:03.921Z,15.67
2019-01-10T23:01:30.605Z,15.60
2019-01-10T23:03:57.198Z,15.55
2019-01-10T23:06:23.832Z,15.52
2019-01-10T23:08:50.473Z,15.50
2019-01-10T23:11:18.523Z,15.48
2019-01-10T23:13:43.778Z,15.47
2019-01-10T23:16:10.425Z,15.42
2019-01-10T23:18:37.063Z,15.42
2019-01-10T23:21:03.719Z,15.40
2019-01-10T23:23:30.362Z,15.36
2019-01-10T23:25:57.028Z,15.35
2019-01-10T23:28:23.648Z,15.36
2019-01-10T23:30:50.300Z,15.31
2019-01-10T23:33:16.960Z,15.31
2019-01-10T23:35:43.612Z,15.31
2019-01-10T23:38:10.254Z,15.38
2019-01-10T23:40:36.954Z,15.41
2019-01-10T23:43:03.589Z,15.27
2019-01-10T23:45:30.247Z,15.30
2019-01-10T23:47:56.872Z,15.24
2019-01-10T23:50:23.529Z,15.28
2019-01-10T23:52:50.181Z,15.20
2019-01-10T23:55:16.869Z,15.20
2019-01-10T23:57:43.512Z,15.20
